Time;durP1;ratioP1;P1;durP2;ratioP2;P2;SDS_P1;SDS_P2;PMS_P1;PMS_P2;Temp;Humidity;BMP_temperature;BMP_pressure;BME280_temperature;BME280_humidity;BME280_pressure;Samples;Min_cycle;Max_cycle;Signal;HPM_P1;HPM_P2
2022/08/19 00:01:57;;;;;;;12.77;11.67;;;;;;;23.89;62.72;98186.94;4961273;28;103707;-70
2022/08/19 00:04:29;;;;;;;13.45;12.25;;;;;;;23.73;63.69;98188.16;4975116;28;103730;-61
2022/08/19 00:06:58;;;;;;;14.50;13.27;;;;;;;23.55;63.81;98180.66;4979093;28;104180;-61
2022/08/19 00:09:27;;;;;;;15.25;13.85;;;;;;;23.52;64.15;98174.88;4975346;28;103437;-61
2022/08/19 00:11:56;;;;;;;13.85;12.65;;;;;;;23.67;63.48;98178.19;4973173;28;102994;-62
2022/08/19 00:14:29;;;;;;;14.85;13.55;;;;;;;23.49;64.17;98183.38;4975379;28;104099;-61
2022/08/19 00:16:58;;;;;;;15.17;13.87;;;;;;;23.22;65.27;98185.13;4974385;28;104167;-61
2022/08/19 00:19:32;;;;;;;13.88;12.77;;;;;;;23.31;64.90;98189.31;4974526;28;103299;-70
2022/08/19 00:22:00;;;;;;;14.13;12.82;;;;;;;23.53;64.08;98193.53;4973257;28;102957;-70
2022/08/19 00:24:28;;;;;;;13.30;12.20;;;;;;;23.71;63.61;98192.09;4971067;28;102645;-71
2022/08/19 00:26:57;;;;;;;15.23;13.88;;;;;;;23.17;65.20;98186.78;4978005;28;103265;-70
2022/08/19 00:29:46;;;;;;;15.18;13.88;;;;;;;23.22;65.05;98190.50;4975322;28;103378;-70
2022/08/19 00:32:20;;;;;;;15.80;14.50;;;;;;;23.13;65.36;98183.63;4961540;28;102920;-71
2022/08/19 00:34:48;;;;;;;14.80;13.50;;;;;;;23.33;64.75;98181.00;4973517;28;102926;-70
2022/08/19 00:37:18;;;;;;;14.07;12.88;;;;;;;23.39;64.62;98175.66;4974564;28;103276;-71
2022/08/19 00:39:46;;;;;;;13.18;11.98;;;;;;;23.56;64.01;98159.94;4959573;28;103258;-71
2022/08/19 00:42:16;;;;;;;13.40;12.30;;;;;;;23.34;64.64;98161.13;4970589;28;102959;-70
2022/08/19 00:44:45;;;;;;;13.50;12.30;;;;;;;23.36;64.50;98154.47;4972331;28;102902;-70
2022/08/19 00:47:14;;;;;;;15.90;14.40;;;;;;;23.08;65.69;98151.09;4974076;28;104260;-70
2022/08/19 00:49:50;;;;;;;15.55;14.13;;;;;;;22.92;66.13;98154.16;4954407;28;104059;-70
2022/08/19 00:52:22;;;;;;;14.60;13.23;;;;;;;23.12;65.68;98163.13;4955344;28;103745;-71
2022/08/19 00:54:53;;;;;;;15.10;13.70;;;;;;;23.20;65.19;98173.72;4976414;28;102973;-70
2022/08/19 00:57:31;;;;;;;14.18;12.98;;;;;;;23.38;64.75;98165.91;4957396;28;103331;-70
2022/08/19 01:00:02;;;;;;;13.93;12.63;;;;;;;23.41;64.51;98184.38;4969484;28;103191;-70
2022/08/19 01:02:33;;;;;;;14.53;13.23;;;;;;;23.27;65.10;98171.88;4965417;28;102955;-70
2022/08/19 01:05:05;;;;;;;13.73;12.63;;;;;;;23.36;64.59;98181.44;4953385;28;103019;-70
2022/08/19 01:07:34;;;;;;;13.43;12.20;;;;;;;23.48;64.24;98179.84;4961326;28;103324;-74
2022/08/19 01:10:08;;;;;;;14.80;13.50;;;;;;;23.42;64.56;98183.34;4960324;28;102679;-61
2022/08/19 01:12:37;;;;;;;13.20;12.05;;;;;;;23.56;63.94;98174.25;4976538;28;102641;-61
2022/08/19 01:15:09;;;;;;;13.52;12.38;;;;;;;23.57;63.94;98173.22;4982775;28;102681;-61
2022/08/19 01:17:39;;;;;;;15.20;13.82;;;;;;;23.38;64.63;98176.69;4961725;28;103954;-61
2022/08/19 01:20:12;;;;;;;14.65;13.35;;;;;;;23.45;64.32;98174.84;4974727;28;103493;-61
2022/08/19 01:22:45;;;;;;;13.70;12.50;;;;;;;23.42;64.08;98177.97;4978888;28;102712;-61
2022/08/19 01:25:15;;;;;;;15.70;14.20;;;;;;;23.14;65.31;98174.53;4975737;28;103778;-61
2022/08/19 01:27:47;;;;;;;12.60;11.50;;;;;;;23.45;64.13;98169.47;4974559;28;104008;-61
2022/08/19 01:30:20;;;;;;;15.15;13.73;;;;;;;23.35;64.53;98174.41;4976915;28;103756;-61
2022/08/19 01:32:48;;;;;;;15.60;14.10;;;;;;;23.37;64.67;98174.19;4976845;28;102724;-61
2022/08/19 01:35:17;;;;;;;14.90;13.57;;;;;;;23.43;64.71;98165.31;4984242;28;103890;-61
2022/08/19 01:37:51;;;;;;;15.80;14.48;;;;;;;23.36;64.94;98165.25;4967365;28;103315;-61
2022/08/19 01:40:22;;;;;;;15.90;14.50;;;;;;;23.19;65.23;98163.97;4975471;28;103242;-61
2022/08/19 01:42:51;;;;;;;16.08;14.38;;;;;;;23.13;65.83;98159.38;4977120;28;102681;-61
2022/08/19 01:45:21;;;;;;;15.32;14.02;;;;;;;23.09;65.94;98171.63;4973155;28;103823;-62
2022/08/19 01:47:49;;;;;;;16.05;14.65;;;;;;;23.27;65.21;98169.16;4981602;28;103275;-61
2022/08/19 01:50:30;;;;;;;12.33;11.23;;;;;;;23.38;65.01;98171.31;4958994;28;103330;-61
2022/08/19 01:53:00;;;;;;;15.05;13.77;;;;;;;23.15;65.91;98173.50;4979689;28;102604;-61
2022/08/19 01:55:36;;;;;;;18.25;16.52;;;;;;;23.05;66.28;98165.81;4977262;28;104099;-61
2022/08/19 01:58:13;;;;;;;18.07;16.47;;;;;;;23.03;66.13;98164.34;4955642;28;103264;-62
2022/08/19 02:00:41;;;;;;;12.63;11.52;;;;;;;23.09;66.46;98166.22;4973865;28;103276;-61
2022/08/19 02:03:10;;;;;;;12.15;11.13;;;;;;;23.27;65.41;98177.25;4955852;28;103283;-61
2022/08/19 02:05:39;;;;;;;18.67;16.88;;;;;;;23.12;66.13;98170.38;4975092;28;102944;-61
2022/08/19 02:08:09;;;;;;;18.65;16.95;;;;;;;23.02;66.45;98170.75;4977867;28;104080;-61
2022/08/19 02:10:40;;;;;;;17.98;16.33;;;;;;;23.11;66.26;98183.03;4959160;28;103228;-61
2022/08/19 02:13:08;;;;;;;17.27;15.68;;;;;;;23.22;65.76;98174.34;4958520;28;102703;-62
2022/08/19 02:15:37;;;;;;;18.90;17.20;;;;;;;23.04;66.97;98182.19;4981660;28;102872;-61
2022/08/19 02:18:07;;;;;;;17.70;16.07;;;;;;;23.06;66.73;98163.94;4980030;28;103214;-61
2022/08/19 02:20:36;;;;;;;19.00;17.17;;;;;;;22.85;67.21;98166.78;4973980;28;103219;-61
2022/08/19 02:23:04;;;;;;;16.73;15.20;;;;;;;23.02;66.98;98166.19;4962997;28;102968;-61
2022/08/19 02:25:42;;;;;;;19.13;17.43;;;;;;;22.90;67.68;98173.22;4964745;28;102984;-61
2022/08/19 02:28:11;;;;;;;19.83;18.00;;;;;;;22.62;67.76;98177.00;4979026;28;103370;-61
2022/08/19 02:30:44;;;;;;;19.60;17.77;;;;;;;22.71;68.17;98171.25;4979917;28;103829;-61
2022/08/19 02:33:12;;;;;;;18.02;16.30;;;;;;;22.94;67.42;98176.31;4963198;28;102837;-61
2022/08/19 02:35:42;;;;;;;19.48;17.70;;;;;;;22.83;67.35;98183.13;4982726;28;104004;-63
2022/08/19 02:38:28;;;;;;;20.20;18.30;;;;;;;22.72;68.21;98177.47;4979853;28;103380;-61
2022/08/19 02:41:00;;;;;;;21.17;19.23;;;;;;;22.26;69.71;98178.00;4956523;28;103231;-61
2022/08/19 02:43:35;;;;;;;19.40;17.60;;;;;;;22.69;68.28;98180.56;4973374;28;102676;-61
2022/08/19 02:46:12;;;;;;;20.63;18.73;;;;;;;22.86;67.99;98179.19;4978264;28;103009;-61
2022/08/19 02:48:40;;;;;;;18.00;16.45;;;;;;;22.92;67.77;98170.31;4975001;28;103321;-61
2022/08/19 02:51:08;;;;;;;21.83;19.80;;;;;;;22.68;68.46;98176.22;4974030;28;103556;-61
2022/08/19 02:53:37;;;;;;;20.20;18.30;;;;;;;22.84;68.00;98176.72;4982273;28;103131;-61
2022/08/19 02:56:08;;;;;;;20.95;19.02;;;;;;;22.65;68.60;98171.25;4960893;28;103254;-61
2022/08/19 02:58:36;;;;;;;18.07;16.47;;;;;;;22.89;67.66;98170.72;4982372;28;104376;-61
2022/08/19 03:01:05;;;;;;;22.85;20.65;;;;;;;22.60;68.50;98176.38;4978937;28;103996;-61
2022/08/19 03:03:34;;;;;;;22.23;20.15;;;;;;;22.32;69.56;98166.47;4960033;28;103091;-61
2022/08/19 03:06:10;;;;;;;20.70;18.75;;;;;;;22.55;68.96;98160.78;4958709;28;102626;-61
2022/08/19 03:08:41;;;;;;;22.05;20.02;;;;;;;22.34;69.85;98159.00;4954772;28;103304;-61
2022/08/19 03:11:15;;;;;;;19.35;17.65;;;;;;;22.41;69.51;98159.91;4979850;28;103172;-70
2022/08/19 03:13:44;;;;;;;22.20;20.13;;;;;;;22.43;70.07;98167.75;4962001;28;102720;-61
2022/08/19 03:16:12;;;;;;;22.83;20.67;;;;;;;22.42;69.76;98172.34;4977007;28;103140;-61
2022/08/19 03:18:40;;;;;;;22.55;20.35;;;;;;;22.50;68.94;98177.56;4977007;28;103356;-61
2022/08/19 03:21:08;;;;;;;16.77;15.27;;;;;;;22.60;68.58;98179.06;4979348;28;103184;-61
2022/08/19 03:23:39;;;;;;;21.83;19.73;;;;;;;22.53;69.69;98182.53;4971549;28;102941;-61
2022/08/19 03:26:07;;;;;;;23.50;21.20;;;;;;;22.23;70.18;98189.16;4977766;28;104690;-61
2022/08/19 03:28:49;;;;;;;18.55;16.98;;;;;;;22.51;69.13;98183.78;4975809;28;103479;-61
2022/08/19 03:31:27;;;;;;;21.23;19.33;;;;;;;22.57;69.23;98180.25;4977980;28;103519;-71
2022/08/19 03:34:19;;;;;;;21.13;19.05;;;;;;;22.19;70.55;98174.47;4959312;28;102838;-71
2022/08/19 03:36:48;;;;;;;24.13;21.92;;;;;;;22.16;70.57;98176.69;4986595;28;102687;-71
2022/08/19 03:39:17;;;;;;;22.97;20.97;;;;;;;22.19;70.40;98187.06;4979056;28;103376;-61
2022/08/19 03:41:47;;;;;;;24.15;21.95;;;;;;;22.33;69.79;98186.13;4984367;28;103211;-62
2022/08/19 03:44:20;;;;;;;25.20;22.92;;;;;;;22.17;70.22;98183.75;4962483;28;102694;-61
2022/08/19 03:46:49;;;;;;;17.40;15.83;;;;;;;22.35;69.42;98192.97;4961117;28;102994;-61
2022/08/19 03:49:18;;;;;;;22.67;20.50;;;;;;;22.36;69.51;98178.50;4979288;28;104012;-61
2022/08/19 03:51:50;;;;;;;22.92;20.83;;;;;;;22.51;69.38;98176.50;4979326;28;103251;-61
2022/08/19 03:54:19;;;;;;;21.38;19.52;;;;;;;22.52;69.10;98182.72;4974345;28;103283;-61
2022/08/19 03:56:49;;;;;;;18.70;17.10;;;;;;;22.50;68.55;98171.34;4983551;28;102851;-61
2022/08/19 03:59:26;;;;;;;18.27;16.67;;;;;;;22.63;68.18;98178.63;4982589;28;103308;-61
2022/08/19 04:01:56;;;;;;;16.77;15.32;;;;;;;22.41;69.25;98186.81;4979941;28;102671;-61
2022/08/19 04:04:24;;;;;;;22.95;20.70;;;;;;;22.39;69.14;98183.50;4976505;28;102719;-61
2022/08/19 04:06:58;;;;;;;23.90;21.85;;;;;;;22.25;69.83;98187.13;4976906;28;103839;-60
2022/08/19 04:09:27;;;;;;;19.73;18.10;;;;;;;22.35;69.38;98189.44;4982028;28;103806;-71
2022/08/19 04:11:56;;;;;;;22.38;20.33;;;;;;;22.33;69.71;98186.13;4981822;28;103550;-61
2022/08/19 04:14:29;;;;;;;20.17;18.37;;;;;;;22.60;68.38;98189.81;4978217;28;102853;-61
2022/08/19 04:16:58;;;;;;;25.25;22.95;;;;;;;22.22;70.05;98192.91;4978203;28;102678;-61
2022/08/19 04:19:27;;;;;;;26.73;24.13;;;;;;;22.03;70.43;98193.59;4966833;28;103344;-63
2022/08/19 04:21:55;;;;;;;25.70;23.30;;;;;;;21.99;71.15;98195.00;4958815;28;103137;-61
2022/08/19 04:24:24;;;;;;;23.25;21.13;;;;;;;22.20;70.16;98186.88;4982029;28;102819;-61
2022/08/19 04:26:54;;;;;;;25.37;22.87;;;;;;;21.89;71.33;98194.50;4959667;28;102922;-61
2022/08/19 04:29:24;;;;;;;22.60;20.50;;;;;;;22.05;71.01;98188.00;4978997;28;103302;-61
2022/08/19 04:31:56;;;;;;;23.50;21.33;;;;;;;22.07;70.61;98189.47;4958787;28;103294;-61
2022/08/19 04:34:26;;;;;;;24.75;22.50;;;;;;;22.19;70.38;98182.53;4977328;28;103056;-61
2022/08/19 04:36:55;;;;;;;24.50;22.27;;;;;;;22.04;70.55;98176.41;4979765;28;102964;-61
2022/08/19 04:42:38;;;;;;;27.33;24.88;;;;;;;21.54;72.70;98176.56;4981199;28;103938;-70
2022/08/19 04:45:02;;;;;;;26.30;23.90;;;;;;;21.83;71.52;98187.19;4979027;28;102786;-71
2022/08/19 04:47:33;;;;;;;24.52;22.25;;;;;;;21.76;71.87;98192.50;4983202;28;102938;-70
2022/08/19 04:50:22;;;;;;;23.90;21.80;;;;;;;21.71;72.36;98186.88;4974243;28;103392;-70
2022/08/19 04:52:52;;;;;;;23.38;21.20;;;;;;;22.06;71.05;98190.50;4986008;28;103267;-71
2022/08/19 04:55:22;;;;;;;27.20;24.67;;;;;;;21.62;72.59;98189.88;4986235;28;102716;-61
2022/08/19 04:57:53;;;;;;;25.63;23.15;;;;;;;21.88;71.47;98200.91;4982755;28;103885;-62
2022/08/19 05:00:21;;;;;;;18.17;16.63;;;;;;;22.15;70.31;98201.91;4987651;28;104129;-61
2022/08/19 05:02:50;;;;;;;27.23;24.63;;;;;;;21.68;72.30;98206.06;4988483;28;103199;-71
2022/08/19 05:05:20;;;;;;;24.30;22.10;;;;;;;21.93;71.16;98199.28;4979260;28;102792;-70
2022/08/19 05:07:48;;;;;;;22.00;20.07;;;;;;;22.16;70.90;98199.06;4984877;28;103868;-70
2022/08/19 05:10:16;;;;;;;23.35;21.38;;;;;;;22.19;70.58;98209.44;4984608;28;103491;-70
2022/08/19 05:12:44;;;;;;;21.15;19.33;;;;;;;22.25;70.38;98205.97;4976160;28;103218;-71
2022/08/19 05:15:12;;;;;;;25.63;23.33;;;;;;;21.93;71.24;98214.59;4983445;28;102848;-70
2022/08/19 05:22:31;;;;;;;23.57;21.43;;;;;;;22.11;70.35;98214.97;4988286;28;102937;-71
2022/08/19 05:23:16;;;;;;;24.00;21.90;;;;;;;21.88;71.73;98225.09;4982325;28;103309;-71
2022/08/19 05:25:49;;;;;;;25.30;22.98;;;;;;;21.86;71.57;98230.66;4989764;28;103047;-70
2022/08/19 05:28:18;;;;;;;26.67;24.27;;;;;;;21.47;72.97;98246.38;4980281;28;102941;-70
2022/08/19 05:30:47;;;;;;;23.30;21.20;;;;;;;21.86;71.93;98251.31;4983229;28;104015;-71
2022/08/19 05:33:15;;;;;;;25.35;22.95;;;;;;;21.90;71.73;98269.59;4979983;28;103486;-69
2022/08/19 05:35:45;;;;;;;29.20;26.30;;;;;;;21.56;73.33;98276.66;4962690;28;102907;-70
2022/08/19 05:38:17;;;;;;;25.33;22.95;;;;;;;21.90;71.39;98274.13;4959551;28;104254;-71
2022/08/19 05:40:49;;;;;;;25.03;22.73;;;;;;;22.13;70.81;98290.91;4973624;28;103351;-71
2022/08/19 05:43:17;;;;;;;25.88;23.63;;;;;;;22.06;71.57;98289.19;4967897;28;103261;-71
2022/08/19 05:45:45;;;;;;;22.05;20.05;;;;;;;22.25;70.59;98294.75;4979015;28;102872;-70
2022/08/19 05:48:14;;;;;;;25.50;23.23;;;;;;;22.09;71.22;98289.63;4978018;28;104091;-70
2022/08/19 05:50:44;;;;;;;24.53;22.43;;;;;;;22.14;70.92;98291.75;4982213;28;103247;-70
2022/08/19 05:53:14;;;;;;;24.05;21.85;;;;;;;21.94;72.31;98292.41;4980662;28;103647;-70
2022/08/19 05:55:42;;;;;;;22.92;20.85;;;;;;;22.31;70.62;98282.38;4975950;28;102535;-70
2022/08/19 05:58:10;;;;;;;21.98;20.08;;;;;;;22.16;70.84;98281.59;4983396;28;103909;-70
2022/08/19 06:00:39;;;;;;;25.45;23.10;;;;;;;22.17;70.86;98278.75;4978826;28;103282;-71
2022/08/19 06:03:07;;;;;;;24.80;22.53;;;;;;;22.14;71.26;98286.38;4980277;28;103260;-71
2022/08/19 06:05:40;;;;;;;26.47;24.13;;;;;;;21.74;72.71;98287.81;4985691;28;102846;-71
2022/08/19 06:08:20;;;;;;;28.63;26.05;;;;;;;21.47;73.95;98283.16;4975137;28;103927;-70
2022/08/19 06:11:15;;;;;;;27.73;25.02;;;;;;;21.59;73.73;98285.16;4979249;28;103385;-70
2022/08/19 06:13:44;;;;;;;26.63;24.23;;;;;;;21.82;72.73;98288.50;4979646;28;103284;-71
2022/08/19 06:16:12;;;;;;;26.42;23.92;;;;;;;21.97;72.00;98284.97;4963465;28;102744;-71
2022/08/19 06:18:40;;;;;;;25.63;23.37;;;;;;;21.95;72.31;98295.91;4980280;28;102900;-71
2022/08/19 06:21:08;;;;;;;23.50;21.48;;;;;;;22.21;71.60;98285.38;4978373;28;103303;-70
2022/08/19 06:23:38;;;;;;;27.30;24.63;;;;;;;21.90;72.21;98279.50;4966968;28;103342;-71
2022/08/19 06:26:07;;;;;;;25.60;23.20;;;;;;;22.13;71.42;98280.13;4976313;28;103018;-70
2022/08/19 06:28:35;;;;;;;24.30;22.03;;;;;;;22.00;71.85;98274.66;4977487;28;103248;-70
2022/08/19 06:31:07;;;;;;;25.95;23.38;;;;;;;21.95;72.36;98285.16;4978568;28;103246;-70
2022/08/19 06:33:35;;;;;;;25.35;23.00;;;;;;;21.99;71.99;98293.66;4973690;28;103260;-70
2022/08/19 06:36:04;;;;;;;27.65;25.02;;;;;;;21.59;73.69;98282.47;4977074;28;102769;-70
2022/08/19 06:38:33;;;;;;;24.77;22.55;;;;;;;21.90;72.86;98285.72;4990155;28;103099;-71
2022/08/19 06:41:03;;;;;;;27.70;25.00;;;;;;;21.84;73.17;98288.31;4964083;28;103300;-70
2022/08/19 06:43:35;;;;;;;28.05;25.52;;;;;;;21.55;75.19;98288.44;4980151;28;103233;-70
2022/08/19 06:46:14;;;;;;;25.45;23.15;;;;;;;21.93;74.40;98290.72;4976726;28;102955;-70
2022/08/19 06:48:43;;;;;;;25.98;23.45;;;;;;;22.04;74.36;98297.44;4979937;28;103194;-70
2022/08/19 06:51:15;;;;;;;26.58;23.88;;;;;;;22.06;74.15;98300.78;4980267;28;104022;-70
2022/08/19 06:53:46;;;;;;;24.10;21.92;;;;;;;22.24;74.02;98287.69;4979694;28;103250;-70
2022/08/19 06:56:20;;;;;;;29.02;26.45;;;;;;;21.68;76.24;98291.25;4981826;28;103102;-70
2022/08/19 06:58:50;;;;;;;26.30;23.85;;;;;;;21.79;75.88;98294.28;4978386;28;103837;-71
2022/08/19 07:01:19;;;;;;;28.75;26.15;;;;;;;21.63;75.41;98288.31;4976645;28;103664;-71
2022/08/19 07:03:47;;;;;;;27.45;24.92;;;;;;;21.60;76.79;98294.06;4958068;28;103406;-70
2022/08/19 07:06:19;;;;;;;26.10;23.70;;;;;;;21.93;74.84;98301.47;4964260;28;102765;-70
2022/08/19 07:09:11;;;;;;;27.50;24.90;;;;;;;21.85;75.45;98298.88;4965929;28;102995;-71
2022/08/19 07:11:45;;;;;;;22.55;20.45;;;;;;;21.78;76.54;98303.34;4983861;28;103338;-70
2022/08/19 07:14:13;;;;;;;22.30;20.27;;;;;;;22.13;74.24;98307.03;4984841;28;103215;-71
2022/08/19 07:16:47;;;;;;;25.23;22.73;;;;;;;22.09;74.06;98302.25;4982407;28;102712;-70
2022/08/19 07:19:16;;;;;;;21.97;20.07;;;;;;;22.09;74.59;98305.75;4980287;28;102772;-70
2022/08/19 07:21:46;;;;;;;27.33;24.73;;;;;;;22.14;74.33;98303.34;4963599;28;103361;-70
2022/08/19 07:24:15;;;;;;;27.80;25.05;;;;;;;21.89;74.15;98310.13;4982772;28;103285;-70
2022/08/19 07:26:45;;;;;;;25.85;23.45;;;;;;;21.95;73.50;98314.75;4983490;28;102982;-70
2022/08/19 07:29:19;;;;;;;26.55;24.25;;;;;;;21.45;75.38;98310.22;4985500;28;104050;-70
2022/08/19 07:31:51;;;;;;;24.23;21.93;;;;;;;21.76;74.71;98310.78;4980285;28;104020;-70
2022/08/19 07:34:21;;;;;;;26.48;23.98;;;;;;;21.45;75.70;98312.91;4979718;28;103473;-70
2022/08/19 07:36:48;;;;;;;26.15;23.65;;;;;;;21.51;75.39;98316.69;4983561;28;103270;-70
2022/08/19 07:39:19;;;;;;;23.85;21.58;;;;;;;21.90;73.64;98309.91;4980942;28;102780;-70
2022/08/19 07:41:50;;;;;;;25.42;23.05;;;;;;;21.77;73.79;98308.94;4976811;28;104536;-70
2022/08/19 07:44:20;;;;;;;24.67;22.42;;;;;;;21.77;73.63;98317.84;4963730;28;103218;-70
2022/08/19 07:46:51;;;;;;;24.40;22.20;;;;;;;21.76;73.62;98320.69;4984320;28;103185;-70
2022/08/19 07:49:21;;;;;;;24.23;21.92;;;;;;;21.51;74.46;98317.53;4982261;28;103967;-70
2022/08/19 07:51:51;;;;;;;25.17;22.85;;;;;;;21.23;75.59;98314.69;4976937;28;104236;-69
2022/08/19 07:54:20;;;;;;;24.42;22.23;;;;;;;21.25;75.67;98323.41;4965874;28;103909;-70
2022/08/19 07:56:50;;;;;;;23.60;21.38;;;;;;;21.47;75.14;98321.63;4982192;28;102950;-70
2022/08/19 07:59:20;;;;;;;23.50;21.30;;;;;;;21.45;75.07;98325.50;4981469;28;104201;-71
2022/08/19 08:01:49;;;;;;;23.77;21.57;;;;;;;21.27;75.62;98318.69;4985348;28;103254;-70
2022/08/19 08:09:51;;;;;;;22.75;20.73;;;;;;;21.73;73.53;98321.06;4981350;28;102803;-70
2022/08/19 08:12:24;;;;;;;17.13;15.73;;;;;;;22.06;72.81;98318.78;4978203;28;103502;-70
2022/08/19 08:15:09;;;;;;;21.38;19.35;;;;;;;22.16;72.85;98325.50;4979457;28;103190;-70
2022/08/19 08:17:40;;;;;;;22.92;20.80;;;;;;;21.64;74.75;98335.69;4977187;28;102618;-71
2022/08/19 08:20:19;;;;;;;22.43;20.40;;;;;;;21.73;74.38;98327.28;4983126;28;102709;-70
2022/08/19 08:25:35;;;;;;;22.57;20.37;;;;;;;21.54;75.68;98333.28;4976727;28;103196;-61
2022/08/19 08:28:08;;;;;;;21.90;19.75;;;;;;;21.57;75.82;98337.44;4980368;28;102598;-61
2022/08/19 08:30:41;;;;;;;23.00;20.98;;;;;;;21.57;76.10;98342.81;4961051;28;102858;-61
2022/08/19 08:33:12;;;;;;;21.00;19.20;;;;;;;21.81;77.70;98326.34;4980850;28;103417;-63
2022/08/19 08:35:42;;;;;;;22.63;20.60;;;;;;;21.90;77.31;98335.97;4984562;28;103220;-61
2022/08/19 08:38:10;;;;;;;23.27;21.08;;;;;;;21.94;79.49;98334.59;4985688;28;102561;-61
2022/08/19 08:40:44;;;;;;;21.70;19.70;;;;;;;22.14;78.17;98335.63;4985008;28;103006;-62
2022/08/19 08:43:23;;;;;;;23.25;21.15;;;;;;;21.87;78.72;98344.41;4983776;28;103874;-62
2022/08/19 08:45:56;;;;;;;20.90;19.10;;;;;;;22.13;78.03;98333.94;4983972;28;103567;-62
2022/08/19 08:48:35;;;;;;;23.17;20.80;;;;;;;22.01;78.25;98338.16;4975537;28;102806;-61
2022/08/19 08:51:08;;;;;;;19.17;17.48;;;;;;;22.43;76.88;98331.91;4963879;28;103661;-61
2022/08/19 08:53:38;;;;;;;23.33;21.13;;;;;;;22.33;77.74;98329.59;4960434;28;103856;-62
2022/08/19 08:56:12;;;;;;;16.30;14.95;;;;;;;22.70;76.49;98336.53;4980697;28;103175;-62
2022/08/19 08:58:52;;;;;;;20.17;18.37;;;;;;;22.39;77.43;98323.44;4981423;28;103153;-62
2022/08/19 09:01:22;;;;;;;21.60;19.70;;;;;;;22.46;77.24;98332.38;4976285;28;102590;-61
2022/08/19 09:03:50;;;;;;;17.23;15.67;;;;;;;22.57;77.17;98327.50;4963254;28;103538;-61
2022/08/19 09:06:25;;;;;;;22.77;20.67;;;;;;;22.14;77.04;98330.25;4953420;28;103456;-62
2022/08/19 09:09:03;;;;;;;18.00;16.35;;;;;;;22.68;75.81;98337.75;4982919;28;102841;-62
2022/08/19 09:11:51;;;;;;;17.27;15.82;;;;;;;22.52;77.18;98328.91;4978127;28;103794;-62
2022/08/19 09:14:41;;;;;;;18.10;16.50;;;;;;;22.91;75.38;98339.16;4959236;28;103365;-62
2022/08/19 09:17:27;;;;;;;20.08;18.27;;;;;;;22.68;76.76;98337.75;4962187;28;103935;-61
2022/08/19 09:20:00;;;;;;;15.07;13.77;;;;;;;22.93;75.44;98336.28;4985948;28;102915;-61
2022/08/19 09:22:31;;;;;;;21.15;19.30;;;;;;;22.51;75.07;98339.88;4976736;28;102644;-61
2022/08/19 09:24:59;;;;;;;15.65;14.25;;;;;;;22.93;74.63;98338.97;4984046;28;103294;-61
2022/08/19 09:27:30;;;;;;;21.00;19.10;;;;;;;22.66;75.88;98339.78;4979316;28;102980;-61
2022/08/19 09:30:15;;;;;;;20.55;18.45;;;;;;;22.49;76.03;98345.44;4954535;28;103436;-62
2022/08/19 09:32:45;;;;;;;19.30;17.60;;;;;;;22.68;75.23;98346.66;4986470;28;103136;-61
2022/08/19 09:35:14;;;;;;;20.00;18.00;;;;;;;22.43;76.67;98337.31;4982599;28;104097;-61
2022/08/19 09:37:43;;;;;;;18.73;16.97;;;;;;;22.76;76.61;98340.31;4980550;28;103236;-61
2022/08/19 09:40:14;;;;;;;18.20;16.47;;;;;;;22.90;74.92;98333.97;4976315;28;102839;-61
2022/08/19 09:42:46;;;;;;;19.85;17.67;;;;;;;22.53;76.13;98335.97;4983569;28;102609;-61
2022/08/19 09:45:22;;;;;;;20.00;17.90;;;;;;;22.20;76.90;98339.41;4978791;28;103460;-62
2022/08/19 09:47:52;;;;;;;15.48;14.07;;;;;;;22.88;75.25;98344.09;4980651;28;103455;-61
2022/08/19 09:50:23;;;;;;;18.05;16.27;;;;;;;22.94;73.99;98346.84;4965521;28;103203;-61
2022/08/19 09:52:53;;;;;;;18.75;16.95;;;;;;;22.67;75.05;98344.16;4957926;28;102933;-61
2022/08/19 09:55:25;;;;;;;17.50;15.67;;;;;;;22.68;74.40;98348.53;4980030;28;103533;-61
2022/08/19 09:58:02;;;;;;;16.15;14.57;;;;;;;23.13;73.30;98344.47;4979338;28;103204;-61
2022/08/19 10:00:31;;;;;;;18.10;16.30;;;;;;;22.48;76.02;98354.53;4982333;28;102770;-61
2022/08/19 10:03:00;;;;;;;17.15;15.43;;;;;;;22.34;76.58;98351.94;4977796;28;103951;-61
2022/08/19 10:08:17;;;;;;;15.13;13.75;;;;;;;23.25;74.37;98345.56;4983693;28;103200;-61
2022/08/19 10:10:45;;;;;;;16.75;14.35;;;;;;;23.12;73.42;98346.34;4956217;28;102935;-61
2022/08/19 10:13:15;;;;;;;15.55;14.15;;;;;;;23.24;74.31;98339.38;4980849;28;102897;-61
2022/08/19 10:15:50;;;;;;;13.25;12.15;;;;;;;23.24;73.40;98342.06;4980276;28;103267;-62
2022/08/19 10:18:20;;;;;;;16.17;14.67;;;;;;;23.35;72.03;98337.97;4979330;28;103234;-61
2022/08/19 10:20:50;;;;;;;15.10;13.73;;;;;;;23.40;71.71;98349.84;4976437;28;103145;-61
2022/08/19 10:23:21;;;;;;;15.65;14.25;;;;;;;23.39;71.79;98340.06;4957654;28;102752;-61
2022/08/19 10:25:49;;;;;;;15.70;14.20;;;;;;;23.15;72.99;98340.56;4977913;28;103284;-61
2022/08/19 10:28:17;;;;;;;15.17;13.77;;;;;;;23.38;71.71;98329.50;4976709;28;103280;-61
2022/08/19 10:30:48;;;;;;;14.23;12.93;;;;;;;23.49;71.83;98337.88;4979608;28;102601;-61
2022/08/19 10:33:16;;;;;;;13.90;12.63;;;;;;;23.55;71.84;98330.84;4956558;28;103299;-61
2022/08/19 10:36:07;;;;;;;15.13;13.63;;;;;;;23.46;71.65;98332.03;4984787;28;103232;-61
2022/08/19 10:38:35;;;;;;;14.18;12.85;;;;;;;23.25;71.93;98335.63;4964251;28;103219;-61
2022/08/19 10:41:12;;;;;;;12.50;11.43;;;;;;;23.80;70.57;98317.63;4988127;28;102654;-61
2022/08/19 10:43:40;;;;;;;14.80;13.40;;;;;;;23.55;70.58;98320.84;4978325;28;102698;-61
2022/08/19 10:46:12;;;;;;;12.15;10.98;;;;;;;23.60;71.24;98315.72;4973328;28;103275;-61
2022/08/19 10:48:44;;;;;;;13.05;11.73;;;;;;;23.53;70.44;98322.94;4961353;28;103226;-61
2022/08/19 10:53:59;;;;;;;11.38;10.27;;;;;;;23.66;69.48;98322.97;4980778;28;102672;-62
2022/08/19 10:59:14;;;;;;;10.90;9.97;;;;;;;23.52;69.86;98326.66;4975385;28;103211;-61
2022/08/19 11:01:46;;;;;;;8.85;8.05;;;;;;;23.69;69.06;98326.31;4957773;28;103066;-61
2022/08/19 11:04:18;;;;;;;9.20;8.30;;;;;;;23.83;68.33;98328.00;4981685;28;102732;-61
2022/08/19 11:06:48;;;;;;;8.97;8.17;;;;;;;24.23;66.95;98325.19;4978222;28;103491;-61
2022/08/19 11:09:18;;;;;;;8.93;8.07;;;;;;;24.24;68.04;98326.03;4979035;28;103527;-61
2022/08/19 11:11:47;;;;;;;9.68;8.60;;;;;;;23.84;68.26;98316.16;4975472;28;102887;-61
2022/08/19 11:14:21;;;;;;;9.68;8.77;;;;;;;23.64;67.66;98322.34;4960215;28;103527;-61
2022/08/19 11:16:51;;;;;;;9.80;8.90;;;;;;;23.85;66.85;98320.53;4982193;28;103275;-61
2022/08/19 11:19:20;;;;;;;9.37;8.03;;;;;;;23.82;67.30;98323.63;4984495;28;103349;-61
2022/08/19 11:21:49;;;;;;;9.73;8.73;;;;;;;23.73;67.66;98322.16;4963059;28;102907;-61
2022/08/19 11:24:23;;;;;;;9.52;8.63;;;;;;;24.15;66.96;98319.16;4963255;28;103124;-61
2022/08/19 11:26:56;;;;;;;9.30;8.40;;;;;;;24.30;66.67;98303.63;4981136;28;104381;-61
2022/08/19 11:29:27;;;;;;;10.40;9.18;;;;;;;24.19;66.41;98318.56;4961649;28;104703;-61
2022/08/19 11:31:56;;;;;;;8.52;7.70;;;;;;;24.23;65.92;98319.81;4977138;28;102865;-61
2022/08/19 11:34:28;;;;;;;8.13;7.43;;;;;;;24.46;64.41;98314.00;4959786;28;103878;-61
2022/08/19 11:36:58;;;;;;;9.53;8.73;;;;;;;23.85;66.67;98315.16;4978323;28;103323;-61
2022/08/19 11:39:28;;;;;;;8.82;8.02;;;;;;;24.16;66.57;98318.97;4983285;28;103053;-61
2022/08/19 11:41:58;;;;;;;9.65;8.75;;;;;;;24.02;66.76;98316.44;4982510;28;102637;-61
2022/08/19 11:44:27;;;;;;;9.53;8.67;;;;;;;24.20;65.80;98314.81;4979430;28;103938;-61
2022/08/19 11:46:57;;;;;;;10.63;9.30;;;;;;;23.71;66.89;98319.69;4977815;28;104098;-61
2022/08/19 11:49:36;;;;;;;9.75;8.85;;;;;;;23.85;66.67;98318.69;4980645;28;103229;-61
2022/08/19 11:52:04;;;;;;;9.60;8.73;;;;;;;24.07;66.81;98319.34;4959438;28;102819;-61